createdAt,value
2019-02-02T00:03:17.720Z,78.60
2019-02-02T00:07:02.688Z,79.21
2019-02-02T00:10:47.316Z,78.43
2019-02-02T00:14:31.957Z,78.57
2019-02-02T00:18:09.093Z,78.59
2019-02-02T00:21:53.682Z,78.83
2019-02-02T00:25:38.660Z,78.57
2019-02-02T00:29:23.320Z,78.88
2019-02-02T00:33:27.131Z,79.04
2019-02-02T00:37:11.713Z,78.92
2019-02-02T00:40:56.334Z,78.75
2019-02-02T00:44:40.932Z,79.13
2019-02-02T00:48:25.888Z,78.42
2019-02-02T00:52:10.485Z,79.11
2019-02-02T00:55:55.109Z,79.27
2019-02-02T00:59:58.841Z,78.88
2019-02-02T01:03:43.473Z,78.47
2019-02-02T01:07:28.065Z,77.67
2019-02-02T01:11:12.687Z,77.95
2019-02-02T01:14:57.296Z,78.01
2019-02-02T01:18:34.936Z,77.85
2019-02-02T01:22:19.520Z,78.21
2019-02-02T01:26:04.159Z,77.61
2019-02-02T01:29:48.767Z,77.87
2019-02-02T01:33:33.423Z,77.42
2019-02-02T01:37:18.036Z,76.88
2019-02-02T01:41:02.681Z,76.50
2019-02-02T01:44:47.666Z,76.33
2019-02-02T01:48:32.251Z,76.34
2019-02-02T01:52:16.882Z,75.84
2019-02-02T01:56:01.475Z,75.64
2019-02-02T01:59:46.424Z,76.11
2019-02-02T02:03:31.003Z,75.04
2019-02-02T02:07:15.580Z,75.49
2019-02-02T02:11:00.216Z,75.00
2019-02-02T02:14:44.877Z,76.03
2019-02-02T02:18:22.642Z,76.00
2019-02-02T02:22:26.099Z,74.90
2019-02-02T02:26:10.727Z,75.61
2019-02-02T02:29:55.441Z,75.67
2019-02-02T02:33:40.061Z,75.64
2019-02-02T02:37:25.035Z,75.31
2019-02-02T02:41:09.640Z,75.92
2019-02-02T02:44:54.282Z,74.81
2019-02-02T02:48:38.892Z,76.16
2019-02-02T02:52:23.749Z,76.48
2019-02-02T02:56:08.377Z,76.64
2019-02-02T02:59:53.054Z,76.60
2019-02-02T03:03:37.670Z,76.88
2019-02-02T03:07:22.388Z,76.07
2019-02-02T03:11:07.007Z,75.78
2019-02-02T03:14:51.955Z,76.59
2019-02-02T03:18:29.641Z,75.70
2019-02-02T03:22:14.599Z,76.00
2019-02-02T03:25:59.236Z,76.65
2019-02-02T03:29:43.851Z,76.12
2019-02-02T03:33:28.462Z,76.38
2019-02-02T03:37:13.077Z,76.93
2019-02-02T03:40:57.649Z,76.24
2019-02-02T03:44:42.589Z,77.06
2019-02-02T03:48:27.206Z,77.52
2019-02-02T03:52:11.897Z,77.53
2019-02-02T03:55:56.463Z,77.40
2019-02-02T03:59:41.077Z,77.55
2019-02-02T04:03:25.684Z,77.25
2019-02-02T04:07:10.310Z,77.19
2019-02-02T04:10:54.946Z,77.51
2019-02-02T04:14:39.542Z,77.78
2019-02-02T04:18:16.456Z,76.82
2019-02-02T04:22:01.083Z,77.63
2019-02-02T04:25:45.731Z,77.57
2019-02-02T04:29:30.601Z,78.07
2019-02-02T04:33:15.430Z,78.23
2019-02-02T04:48:32.457Z,79.46
2019-02-02T04:52:17.003Z,78.96
2019-02-02T04:56:01.596Z,78.85
2019-02-02T04:59:46.237Z,79.63
2019-02-02T05:03:31.216Z,80.04
2019-02-02T05:07:15.808Z,79.84
2019-02-02T05:11:00.728Z,80.68
2019-02-02T05:18:28.291Z,80.19
2019-02-02T05:22:31.994Z,79.98
2019-02-02T05:30:10.536Z,80.55
2019-02-02T05:41:49.092Z,80.28
2019-02-02T05:45:33.685Z,80.28
2019-02-02T05:53:21.925Z,81.14
2019-02-02T05:57:06.545Z,80.79
2019-02-02T06:04:47.159Z,81.36
2019-02-02T06:08:31.831Z,81.44
2019-02-02T06:12:16.487Z,81.32
2019-02-02T06:16:01.107Z,81.32
2019-02-02T06:19:38.026Z,81.32
2019-02-02T06:23:22.630Z,81.34
2019-02-02T06:27:07.222Z,81.83
2019-02-02T06:30:51.882Z,81.56
2019-02-02T06:46:20.639Z,80.79
2019-02-02T06:50:25.969Z,81.54
2019-02-02T06:54:10.624Z,81.98
2019-02-02T06:57:55.297Z,81.41
2019-02-02T07:01:39.901Z,81.10
2019-02-02T07:05:43.375Z,81.08
2019-02-02T07:09:28.168Z,81.05
2019-02-02T07:13:12.823Z,81.70
2019-02-02T07:16:50.499Z,81.56
2019-02-02T07:28:28.937Z,81.29
2019-02-02T07:32:32.408Z,81.71
2019-02-02T07:36:35.838Z,82.04
2019-02-02T07:40:39.685Z,81.78
2019-02-02T07:44:24.271Z,82.48
2019-02-02T07:48:08.878Z,81.72
2019-02-02T07:55:57.317Z,81.57
2019-02-02T08:03:33.012Z,81.63
2019-02-02T08:11:21.415Z,82.29
2019-02-02T08:15:07.344Z,82.46
2019-02-02T08:18:44.314Z,82.27
2019-02-02T08:22:28.941Z,82.34
2019-02-02T08:30:03.832Z,82.28
2019-02-02T08:37:38.923Z,82.18
2019-02-02T08:41:42.554Z,81.89
2019-02-02T08:49:19.362Z,81.56
2019-02-02T08:57:07.542Z,81.52
2019-02-02T09:01:03.361Z,81.59
2019-02-02T09:08:29.177Z,81.92
2019-02-02T09:12:13.813Z,82.13
2019-02-02T09:15:39.478Z,81.77
2019-02-02T09:23:27.943Z,81.64
2019-02-02T09:27:12.598Z,81.82
2019-02-02T09:30:57.234Z,81.52
2019-02-02T09:38:26.324Z,81.08
2019-02-02T09:42:29.756Z,81.22
2019-02-02T09:46:33.724Z,81.83
2019-02-02T09:50:20.130Z,81.32
2019-02-02T09:57:57.519Z,81.74
2019-02-02T10:01:42.403Z,82.09
2019-02-02T10:05:46.202Z,82.24
2019-02-02T10:09:30.816Z,81.79
2019-02-02T10:13:08.117Z,81.94
2019-02-02T10:16:52.751Z,81.60
2019-02-02T10:20:37.350Z,81.44
2019-02-02T10:24:21.983Z,81.53
2019-02-02T10:28:25.569Z,80.96
2019-02-02T10:32:29.007Z,81.06
2019-02-02T10:40:03.353Z,81.31
2019-02-02T10:43:48.000Z,80.91
2019-02-02T10:47:51.465Z,81.41
2019-02-02T10:59:08.806Z,80.85
2019-02-02T11:02:53.403Z,80.76
2019-02-02T11:06:38.088Z,81.32
2019-02-02T11:49:00.707Z,81.16
2019-02-02T11:52:45.893Z,80.94
2019-02-02T11:56:30.489Z,80.84
2019-02-02T12:00:10.209Z,80.72
2019-02-02T12:07:58.745Z,80.73
2019-02-02T12:11:43.358Z,80.24
2019-02-02T12:19:18.985Z,80.21
2019-02-02T12:23:03.676Z,80.40
2019-02-02T12:30:51.933Z,81.70
2019-02-02T12:34:17.574Z,81.07
2019-02-02T12:38:02.238Z,81.20
2019-02-02T12:41:46.833Z,80.85
2019-02-02T12:45:51.607Z,81.19
2019-02-02T12:49:36.313Z,81.47
2019-02-02T13:00:55.303Z,81.21
2019-02-02T13:04:39.983Z,81.57
2019-02-02T13:08:24.580Z,81.23
2019-02-02T13:12:09.195Z,81.64
2019-02-02T13:15:53.863Z,81.70
2019-02-02T13:19:40.378Z,81.60
2019-02-02T13:23:28.373Z,81.78
2019-02-02T13:27:13.236Z,81.88
2019-02-02T13:38:39.251Z,81.17
2019-02-02T13:42:23.965Z,81.12
2019-02-02T13:46:09.225Z,81.04
2019-02-02T13:49:53.949Z,80.87
2019-02-02T13:57:31.342Z,81.32
2019-02-02T14:01:09.642Z,81.38
2019-02-02T14:05:13.267Z,81.11
2019-02-02T14:12:48.318Z,80.83
2019-02-02T14:16:33.654Z,80.84
2019-02-02T14:20:30.778Z,81.55
2019-02-02T14:24:05.361Z,81.16
2019-02-02T14:27:50.060Z,81.00
2019-02-02T14:31:34.685Z,80.83
2019-02-02T14:35:20.455Z,80.26
2019-02-02T14:39:25.748Z,81.14
2019-02-02T14:43:10.432Z,81.91
2019-02-02T14:46:55.109Z,81.12
2019-02-02T14:50:39.752Z,81.01
2019-02-02T14:54:24.392Z,81.14
2019-02-02T15:02:04.956Z,81.42
2019-02-02T15:17:33.636Z,81.60
2019-02-02T15:21:18.358Z,81.16
2019-02-02T15:28:53.564Z,81.33
2019-02-02T15:32:38.157Z,81.19
2019-02-02T15:36:22.761Z,81.50
2019-02-02T15:40:27.056Z,81.32
2019-02-02T15:48:15.234Z,81.55
2019-02-02T15:55:50.370Z,80.89
2019-02-02T15:59:35.063Z,81.41
2019-02-02T16:03:12.883Z,81.53
2019-02-02T16:06:57.508Z,81.53
2019-02-02T16:10:42.193Z,81.30
2019-02-02T16:18:35.890Z,80.96
2019-02-02T16:22:39.356Z,81.54
2019-02-02T16:26:23.967Z,80.99
2019-02-02T16:34:02.428Z,81.50
2019-02-02T16:41:50.840Z,81.34
2019-02-02T16:45:35.519Z,81.78
2019-02-02T16:53:23.644Z,82.10
2019-02-02T17:00:39.048Z,81.65
2019-02-02T17:04:23.642Z,82.06
2019-02-02T17:08:08.401Z,82.10
2019-02-02T17:22:59.506Z,81.76
2019-02-02T17:27:02.993Z,81.26
2019-02-02T17:30:47.630Z,81.42
2019-02-02T17:38:41.882Z,81.64
2019-02-02T17:42:26.549Z,81.63
2019-02-02T17:46:29.977Z,81.82
2019-02-02T17:50:19.386Z,81.86
2019-02-02T17:54:04.615Z,81.20
2019-02-02T17:57:41.669Z,81.27
2019-02-02T18:01:26.829Z,81.58
2019-02-02T18:05:12.007Z,81.21
2019-02-02T18:12:49.467Z,81.40
2019-02-02T18:16:34.386Z,81.97
2019-02-02T18:20:22.646Z,81.79
2019-02-02T18:24:07.774Z,81.47
2019-02-02T18:27:34.124Z,81.35
2019-02-02T18:31:19.103Z,82.17
2019-02-02T18:39:20.841Z,81.51
2019-02-02T18:47:16.234Z,82.00
2019-02-02T18:51:00.863Z,81.91
2019-02-02T18:58:36.257Z,81.84
2019-02-02T19:02:20.904Z,81.64
2019-02-02T19:06:07.981Z,81.85
2019-02-02T19:09:52.604Z,81.57
2019-02-02T19:13:39.233Z,81.69
2019-02-02T19:17:12.792Z,81.70
2019-02-02T19:20:57.411Z,81.94
2019-02-02T19:24:42.364Z,81.89
2019-02-02T19:28:39.148Z,82.04
2019-02-02T19:32:14.684Z,82.29
2019-02-02T19:36:18.215Z,82.16
2019-02-02T19:39:56.075Z,82.41
2019-02-02T19:47:34.711Z,82.45
2019-02-02T19:51:19.389Z,82.30
2019-02-02T19:59:07.817Z,82.10
2019-02-02T20:02:52.500Z,81.86
2019-02-02T20:06:18.409Z,81.89
2019-02-02T20:10:03.120Z,81.62
2019-02-02T20:13:48.510Z,81.77
2019-02-02T20:17:33.474Z,81.89
2019-02-02T20:21:31.370Z,81.80
2019-02-02T20:24:48.322Z,81.90
2019-02-02T20:28:33.909Z,81.37
2019-02-02T20:32:18.930Z,82.14
2019-02-02T20:36:05.863Z,82.07
2019-02-02T20:39:44.241Z,81.81
2019-02-02T20:43:29.290Z,81.72
2019-02-02T20:51:19.569Z,82.31
2019-02-02T20:55:05.236Z,81.89
2019-02-02T20:58:50.994Z,81.59
2019-02-02T21:02:36.127Z,81.87
2019-02-02T21:10:20.475Z,82.24
2019-02-02T21:14:09.311Z,82.60
2019-02-02T21:18:15.858Z,81.46
2019-02-02T21:22:01.332Z,81.82
2019-02-02T21:26:08.431Z,81.89
2019-02-02T21:29:54.914Z,81.96
2019-02-02T21:34:02.971Z,81.83
2019-02-02T21:41:35.615Z,81.45
2019-02-02T21:49:10.397Z,81.70
2019-02-02T21:52:55.097Z,81.87
2019-02-02T22:00:51.188Z,81.91
2019-02-02T22:04:35.830Z,81.92
2019-02-02T22:11:51.204Z,81.78
2019-02-02T22:15:35.871Z,82.05
2019-02-02T22:19:20.826Z,81.79
2019-02-02T22:23:24.389Z,81.92
2019-02-02T22:27:09.029Z,82.26
2019-02-02T22:30:54.704Z,82.99
2019-02-02T22:34:20.593Z,82.63
2019-02-02T22:38:07.054Z,81.96
2019-02-02T22:41:44.445Z,81.88
2019-02-02T22:45:16.284Z,82.00
2019-02-02T22:49:40.667Z,81.69
2019-02-02T22:53:26.710Z,81.93
2019-02-02T22:57:12.706Z,81.81
2019-02-02T23:01:36.528Z,82.05
2019-02-02T23:05:49.834Z,81.40
2019-02-02T23:10:13.463Z,82.17
2019-02-02T23:14:40.648Z,82.38
2019-02-02T23:18:46.820Z,82.52
2019-02-02T23:22:33.181Z,82.02
2019-02-02T23:26:38.608Z,82.64
2019-02-02T23:30:24.975Z,82.15
2019-02-02T23:38:00.329Z,82.56
2019-02-02T23:41:46.623Z,81.95
2019-02-02T23:45:31.894Z,81.62
2019-02-02T23:54:02.770Z,81.37
2019-02-02T23:57:48.677Z,80.84
